sensor_id;sensor_type;location;lat;lon;timestamp;temperature;humidity
2106;DHT22;1059;52.548;13.408;2023-06-14T00:02:00;15.80;1.00
2106;DHT22;1059;52.548;13.408;2023-06-14T00:04:29;15.70;1.00
2106;DHT22;1059;52.548;13.408;2023-06-14T00:06:56;15.60;1.00
2106;DHT22;1059;52.548;13.408;2023-06-14T00:09:23;15.60;1.00
2106;DHT22;1059;52.548;13.408;2023-06-14T00:11:50;15.50;1.00
2106;DHT22;1059;52.548;13.408;2023-06-14T00:14:17;15.50;1.00
2106;DHT22;1059;52.548;13.408;2023-06-14T00:16:44;15.40;1.00
2106;DHT22;1059;52.548;13.408;2023-06-14T00:19:10;15.40;1.00
2106;DHT22;1059;52.548;13.408;2023-06-14T00:21:39;15.30;1.00
2106;DHT22;1059;52.548;13.408;2023-06-14T00:24:06;15.30;1.00
2106;DHT22;1059;52.548;13.408;2023-06-14T00:26:33;15.30;1.00
2106;DHT22;1059;52.548;13.408;2023-06-14T00:29:00;15.30;1.00
2106;DHT22;1059;52.548;13.408;2023-06-14T00:31:27;15.30;1.00
2106;DHT22;1059;52.548;13.408;2023-06-14T00:33:54;15.20;1.00
2106;DHT22;1059;52.548;13.408;2023-06-14T00:36:21;15.20;1.00
2106;DHT22;1059;52.548;13.408;2023-06-14T00:38:49;15.20;1.00
2106;DHT22;1059;52.548;13.408;2023-06-14T00:41:16;15.20;63.80
2106;DHT22;1059;52.548;13.408;2023-06-14T00:43:43;15.20;2.70
2106;DHT22;1059;52.548;13.408;2023-06-14T00:46:10;15.10;37.90
2106;DHT22;1059;52.548;13.408;2023-06-14T00:48:37;15.10;93.90
2106;DHT22;1059;52.548;13.408;2023-06-14T00:51:05;15.10;79.10
2106;DHT22;1059;52.548;13.408;2023-06-14T00:53:32;15.10;99.90
2106;DHT22;1059;52.548;13.408;2023-06-14T00:56:02;15.00;99.90
2106;DHT22;1059;52.548;13.408;2023-06-14T00:58:30;15.00;99.90
2106;DHT22;1059;52.548;13.408;2023-06-14T01:00:58;15.00;99.90
2106;DHT22;1059;52.548;13.408;2023-06-14T01:03:25;15.00;99.90
2106;DHT22;1059;52.548;13.408;2023-06-14T01:05:58;14.90;99.90
2106;DHT22;1059;52.548;13.408;2023-06-14T01:08:35;14.90;99.90
2106;DHT22;1059;52.548;13.408;2023-06-14T01:11:10;14.90;99.90
2106;DHT22;1059;52.548;13.408;2023-06-14T01:13:40;14.90;1.00
2106;DHT22;1059;52.548;13.408;2023-06-14T01:16:10;14.90;1.00
2106;DHT22;1059;52.548;13.408;2023-06-14T01:18:37;14.90;1.00
2106;DHT22;1059;52.548;13.408;2023-06-14T01:21:04;14.90;1.00
2106;DHT22;1059;52.548;13.408;2023-06-14T01:23:33;14.90;1.00
2106;DHT22;1059;52.548;13.408;2023-06-14T01:26:00;14.90;1.00
2106;DHT22;1059;52.548;13.408;2023-06-14T01:28:29;14.90;1.00
2106;DHT22;1059;52.548;13.408;2023-06-14T01:31:00;14.90;1.00
2106;DHT22;1059;52.548;13.408;2023-06-14T01:33:29;14.90;1.00
2106;DHT22;1059;52.548;13.408;2023-06-14T01:35:57;14.90;1.00
2106;DHT22;1059;52.548;13.408;2023-06-14T01:38:26;15.00;1.00
2106;DHT22;1059;52.548;13.408;2023-06-14T01:40:55;15.00;1.00
2106;DHT22;1059;52.548;13.408;2023-06-14T01:43:23;14.90;1.00
2106;DHT22;1059;52.548;13.408;2023-06-14T01:45:51;14.90;1.00
2106;DHT22;1059;52.548;13.408;2023-06-14T01:48:20;14.90;1.00
2106;DHT22;1059;52.548;13.408;2023-06-14T01:50:48;14.90;1.00
2106;DHT22;1059;52.548;13.408;2023-06-14T01:53:16;14.90;1.00
2106;DHT22;1059;52.548;13.408;2023-06-14T01:55:43;14.90;99.90
2106;DHT22;1059;52.548;13.408;2023-06-14T01:58:11;14.80;99.90
2106;DHT22;1059;52.548;13.408;2023-06-14T02:00:38;14.80;99.90
2106;DHT22;1059;52.548;13.408;2023-06-14T02:03:05;14.70;99.90
2106;DHT22;1059;52.548;13.408;2023-06-14T02:05:32;14.70;1.00
2106;DHT22;1059;52.548;13.408;2023-06-14T02:08:00;14.60;1.00
2106;DHT22;1059;52.548;13.408;2023-06-14T02:10:26;14.60;1.00
2106;DHT22;1059;52.548;13.408;2023-06-14T02:12:53;14.60;1.00
2106;DHT22;1059;52.548;13.408;2023-06-14T02:15:22;14.50;1.00
2106;DHT22;1059;52.548;13.408;2023-06-14T02:17:49;14.50;1.00
2106;DHT22;1059;52.548;13.408;2023-06-14T02:20:16;14.50;1.00
2106;DHT22;1059;52.548;13.408;2023-06-14T02:22:44;14.50;1.00
2106;DHT22;1059;52.548;13.408;2023-06-14T02:25:11;14.50;1.00
2106;DHT22;1059;52.548;13.408;2023-06-14T02:27:38;14.50;1.00
2106;DHT22;1059;52.548;13.408;2023-06-14T02:30:06;14.40;1.00
2106;DHT22;1059;52.548;13.408;2023-06-14T02:32:34;14.40;1.00
2106;DHT22;1059;52.548;13.408;2023-06-14T02:35:02;14.40;86.30
2106;DHT22;1059;52.548;13.408;2023-06-14T02:37:29;14.30;23.90
2106;DHT22;1059;52.548;13.408;2023-06-14T02:39:56;14.30;99.90
2106;DHT22;1059;52.548;13.408;2023-06-14T02:42:22;14.30;99.90
2106;DHT22;1059;52.548;13.408;2023-06-14T02:44:49;14.20;1.00
2106;DHT22;1059;52.548;13.408;2023-06-14T02:47:17;14.20;99.90
2106;DHT22;1059;52.548;13.408;2023-06-14T02:49:45;14.20;1.00
2106;DHT22;1059;52.548;13.408;2023-06-14T02:52:13;14.10;1.00
2106;DHT22;1059;52.548;13.408;2023-06-14T02:54:39;14.10;1.00
2106;DHT22;1059;52.548;13.408;2023-06-14T02:57:07;14.10;1.00
2106;DHT22;1059;52.548;13.408;2023-06-14T02:59:34;14.10;1.00
2106;DHT22;1059;52.548;13.408;2023-06-14T03:02:01;14.10;99.90
2106;DHT22;1059;52.548;13.408;2023-06-14T03:04:28;14.00;99.90
2106;DHT22;1059;52.548;13.408;2023-06-14T03:06:59;14.00;1.00
2106;DHT22;1059;52.548;13.408;2023-06-14T03:09:28;14.00;99.90
2106;DHT22;1059;52.548;13.408;2023-06-14T03:11:55;14.00;1.00
2106;DHT22;1059;52.548;13.408;2023-06-14T03:14:22;14.00;99.90
2106;DHT22;1059;52.548;13.408;2023-06-14T03:16:48;13.90;1.00
2106;DHT22;1059;52.548;13.408;2023-06-14T03:19:15;13.90;1.00
2106;DHT22;1059;52.548;13.408;2023-06-14T03:21:42;13.90;1.00
2106;DHT22;1059;52.548;13.408;2023-06-14T03:24:11;13.90;99.90
2106;DHT22;1059;52.548;13.408;2023-06-14T03:26:38;13.90;1.00
2106;DHT22;1059;52.548;13.408;2023-06-14T03:29:05;13.90;1.00
2106;DHT22;1059;52.548;13.408;2023-06-14T03:31:31;13.90;99.90
2106;DHT22;1059;52.548;13.408;2023-06-14T03:33:59;13.90;99.90
2106;DHT22;1059;52.548;13.408;2023-06-14T03:36:25;13.90;99.90
2106;DHT22;1059;52.548;13.408;2023-06-14T03:38:53;13.90;1.00
2106;DHT22;1059;52.548;13.408;2023-06-14T03:41:21;13.90;1.00
2106;DHT22;1059;52.548;13.408;2023-06-14T03:43:48;13.90;99.90
2106;DHT22;1059;52.548;13.408;2023-06-14T03:46:15;14.00;1.00
2106;DHT22;1059;52.548;13.408;2023-06-14T03:48:42;14.00;1.00
2106;DHT22;1059;52.548;13.408;2023-06-14T03:51:08;14.00;1.00
2106;DHT22;1059;52.548;13.408;2023-06-14T03:53:35;14.00;99.90
2106;DHT22;1059;52.548;13.408;2023-06-14T03:56:02;14.00;99.90
2106;DHT22;1059;52.548;13.408;2023-06-14T03:58:31;14.00;99.90
2106;DHT22;1059;52.548;13.408;2023-06-14T04:00:58;14.00;1.00
2106;DHT22;1059;52.548;13.408;2023-06-14T04:03:24;14.00;1.00
2106;DHT22;1059;52.548;13.408;2023-06-14T04:05:55;14.00;18.50
2106;DHT22;1059;52.548;13.408;2023-06-14T04:08:22;14.00;1.00
2106;DHT22;1059;52.548;13.408;2023-06-14T04:10:50;14.10;20.50
2106;DHT22;1059;52.548;13.408;2023-06-14T04:13:17;14.10;99.90
2106;DHT22;1059;52.548;13.408;2023-06-14T04:15:45;14.20;1.00
2106;DHT22;1059;52.548;13.408;2023-06-14T04:18:12;14.20;99.90
2106;DHT22;1059;52.548;13.408;2023-06-14T04:20:39;14.20;99.90
2106;DHT22;1059;52.548;13.408;2023-06-14T04:23:16;14.20;1.00
2106;DHT22;1059;52.548;13.408;2023-06-14T04:25:43;14.30;1.00
2106;DHT22;1059;52.548;13.408;2023-06-14T04:28:11;14.30;1.00
2106;DHT22;1059;52.548;13.408;2023-06-14T04:30:38;14.30;1.00
2106;DHT22;1059;52.548;13.408;2023-06-14T04:33:07;14.40;1.00
2106;DHT22;1059;52.548;13.408;2023-06-14T04:35:35;14.40;99.90
2106;DHT22;1059;52.548;13.408;2023-06-14T04:38:03;14.40;1.00
2106;DHT22;1059;52.548;13.408;2023-06-14T04:40:34;14.40;99.90
2106;DHT22;1059;52.548;13.408;2023-06-14T04:43:08;14.50;99.90
2106;DHT22;1059;52.548;13.408;2023-06-14T04:45:38;14.50;99.90
2106;DHT22;1059;52.548;13.408;2023-06-14T04:48:07;14.50;99.90
2106;DHT22;1059;52.548;13.408;2023-06-14T04:50:33;14.60;99.90
2106;DHT22;1059;52.548;13.408;2023-06-14T04:53:00;14.70;1.00
2106;DHT22;1059;52.548;13.408;2023-06-14T04:55:28;14.70;99.90
2106;DHT22;1059;52.548;13.408;2023-06-14T04:57:55;14.80;99.90
2106;DHT22;1059;52.548;13.408;2023-06-14T05:00:22;14.90;99.90
2106;DHT22;1059;52.548;13.408;2023-06-14T05:02:49;14.90;99.90
2106;DHT22;1059;52.548;13.408;2023-06-14T05:05:19;15.00;99.90
2106;DHT22;1059;52.548;13.408;2023-06-14T05:07:46;15.10;1.00
2106;DHT22;1059;52.548;13.408;2023-06-14T05:10:13;15.20;99.90
2106;DHT22;1059;52.548;13.408;2023-06-14T05:12:40;15.30;99.90
2106;DHT22;1059;52.548;13.408;2023-06-14T05:15:09;15.30;1.00
2106;DHT22;1059;52.548;13.408;2023-06-14T05:17:36;15.40;1.00
2106;DHT22;1059;52.548;13.408;2023-06-14T05:20:07;15.40;99.90
2106;DHT22;1059;52.548;13.408;2023-06-14T05:22:36;15.50;99.90
2106;DHT22;1059;52.548;13.408;2023-06-14T05:25:04;15.60;1.00
2106;DHT22;1059;52.548;13.408;2023-06-14T05:27:31;15.60;1.00
2106;DHT22;1059;52.548;13.408;2023-06-14T05:30:00;15.70;1.00
2106;DHT22;1059;52.548;13.408;2023-06-14T05:32:26;15.80;1.00
2106;DHT22;1059;52.548;13.408;2023-06-14T05:34:53;15.90;1.00
2106;DHT22;1059;52.548;13.408;2023-06-14T05:37:20;16.00;1.00
2106;DHT22;1059;52.548;13.408;2023-06-14T05:39:48;16.10;1.00
2106;DHT22;1059;52.548;13.408;2023-06-14T05:42:15;16.20;1.00
2106;DHT22;1059;52.548;13.408;2023-06-14T05:44:42;16.30;1.00
2106;DHT22;1059;52.548;13.408;2023-06-14T05:47:09;16.30;1.00
2106;DHT22;1059;52.548;13.408;2023-06-14T05:49:35;16.40;1.00
2106;DHT22;1059;52.548;13.408;2023-06-14T05:52:02;16.40;1.00
2106;DHT22;1059;52.548;13.408;2023-06-14T05:54:30;16.50;1.00
2106;DHT22;1059;52.548;13.408;2023-06-14T05:56:58;16.50;1.00
2106;DHT22;1059;52.548;13.408;2023-06-14T05:59:26;16.60;1.00
2106;DHT22;1059;52.548;13.408;2023-06-14T06:01:53;16.70;1.00
2106;DHT22;1059;52.548;13.408;2023-06-14T06:04:20;16.70;1.00
2106;DHT22;1059;52.548;13.408;2023-06-14T06:06:47;16.80;1.00
2106;DHT22;1059;52.548;13.408;2023-06-14T06:09:14;16.90;1.00
2106;DHT22;1059;52.548;13.408;2023-06-14T06:11:41;16.90;1.00
2106;DHT22;1059;52.548;13.408;2023-06-14T06:14:09;16.90;1.00
2106;DHT22;1059;52.548;13.408;2023-06-14T06:16:36;17.00;1.00
2106;DHT22;1059;52.548;13.408;2023-06-14T06:19:03;17.00;1.00
2106;DHT22;1059;52.548;13.408;2023-06-14T06:21:29;17.00;1.00
2106;DHT22;1059;52.548;13.408;2023-06-14T06:23:57;17.00;1.00
2106;DHT22;1059;52.548;13.408;2023-06-14T06:26:24;17.00;1.00
2106;DHT22;1059;52.548;13.408;2023-06-14T06:28:52;17.00;1.00
2106;DHT22;1059;52.548;13.408;2023-06-14T06:31:20;17.00;1.00
2106;DHT22;1059;52.548;13.408;2023-06-14T06:33:48;17.00;1.00
2106;DHT22;1059;52.548;13.408;2023-06-14T06:36:14;16.90;1.00
2106;DHT22;1059;52.548;13.408;2023-06-14T06:38:42;16.90;1.00
2106;DHT22;1059;52.548;13.408;2023-06-14T06:41:09;16.90;1.00
2106;DHT22;1059;52.548;13.408;2023-06-14T06:43:35;16.90;1.00
2106;DHT22;1059;52.548;13.408;2023-06-14T06:46:02;16.90;1.00
2106;DHT22;1059;52.548;13.408;2023-06-14T06:48:30;16.90;1.00
2106;DHT22;1059;52.548;13.408;2023-06-14T06:50:57;16.90;1.00
2106;DHT22;1059;52.548;13.408;2023-06-14T06:53:24;16.90;1.00
2106;DHT22;1059;52.548;13.408;2023-06-14T06:55:51;16.90;1.00
2106;DHT22;1059;52.548;13.408;2023-06-14T06:58:18;16.90;1.00
2106;DHT22;1059;52.548;13.408;2023-06-14T07:00:47;17.00;1.00
2106;DHT22;1059;52.548;13.408;2023-06-14T07:03:14;17.10;1.00
2106;DHT22;1059;52.548;13.408;2023-06-14T07:05:42;17.20;1.00
2106;DHT22;1059;52.548;13.408;2023-06-14T07:08:09;17.20;1.00
2106;DHT22;1059;52.548;13.408;2023-06-14T07:10:36;17.30;1.00
2106;DHT22;1059;52.548;13.408;2023-06-14T07:13:03;17.40;1.00
2106;DHT22;1059;52.548;13.408;2023-06-14T07:15:30;17.40;1.00
2106;DHT22;1059;52.548;13.408;2023-06-14T07:17:57;17.50;1.00
2106;DHT22;1059;52.548;13.408;2023-06-14T07:20:25;17.50;1.00
2106;DHT22;1059;52.548;13.408;2023-06-14T07:22:53;17.60;1.00
2106;DHT22;1059;52.548;13.408;2023-06-14T07:25:20;17.60;1.00
2106;DHT22;1059;52.548;13.408;2023-06-14T07:27:47;17.70;1.00
2106;DHT22;1059;52.548;13.408;2023-06-14T07:30:14;17.80;1.00
2106;DHT22;1059;52.548;13.408;2023-06-14T07:32:41;17.80;1.00
2106;DHT22;1059;52.548;13.408;2023-06-14T07:35:08;17.90;99.90
2106;DHT22;1059;52.548;13.408;2023-06-14T07:37:35;18.00;1.00
2106;DHT22;1059;52.548;13.408;2023-06-14T07:40:04;18.10;1.00
2106;DHT22;1059;52.548;13.408;2023-06-14T07:42:33;18.10;99.90
2106;DHT22;1059;52.548;13.408;2023-06-14T07:45:00;18.30;1.00
2106;DHT22;1059;52.548;13.408;2023-06-14T07:47:27;18.40;1.00
2106;DHT22;1059;52.548;13.408;2023-06-14T07:49:53;18.50;1.00
2106;DHT22;1059;52.548;13.408;2023-06-14T07:52:20;18.50;39.20
2106;DHT22;1059;52.548;13.408;2023-06-14T07:54:47;18.60;14.10
2106;DHT22;1059;52.548;13.408;2023-06-14T07:57:15;18.70;8.10
2106;DHT22;1059;52.548;13.408;2023-06-14T07:59:42;18.80;7.00
2106;DHT22;1059;52.548;13.408;2023-06-14T08:02:09;18.90;1.00
2106;DHT22;1059;52.548;13.408;2023-06-14T08:04:36;18.90;1.00
2106;DHT22;1059;52.548;13.408;2023-06-14T08:07:04;19.00;1.00
2106;DHT22;1059;52.548;13.408;2023-06-14T08:09:30;19.10;1.00
2106;DHT22;1059;52.548;13.408;2023-06-14T08:11:57;19.20;1.00
2106;DHT22;1059;52.548;13.408;2023-06-14T08:14:25;19.20;1.00
2106;DHT22;1059;52.548;13.408;2023-06-14T08:16:52;19.20;1.00
2106;DHT22;1059;52.548;13.408;2023-06-14T08:19:19;19.20;1.00
2106;DHT22;1059;52.548;13.408;2023-06-14T08:21:46;19.20;1.00
2106;DHT22;1059;52.548;13.408;2023-06-14T08:24:14;19.30;1.00
2106;DHT22;1059;52.548;13.408;2023-06-14T08:26:41;19.30;1.00
2106;DHT22;1059;52.548;13.408;2023-06-14T08:29:07;19.30;1.00
2106;DHT22;1059;52.548;13.408;2023-06-14T08:31:36;19.30;1.00
2106;DHT22;1059;52.548;13.408;2023-06-14T08:34:03;19.40;1.00
2106;DHT22;1059;52.548;13.408;2023-06-14T08:36:29;19.50;1.00
2106;DHT22;1059;52.548;13.408;2023-06-14T08:38:56;19.50;1.00
2106;DHT22;1059;52.548;13.408;2023-06-14T08:41:23;19.50;1.00
2106;DHT22;1059;52.548;13.408;2023-06-14T08:43:51;19.50;1.00
2106;DHT22;1059;52.548;13.408;2023-06-14T08:46:18;19.60;1.00
2106;DHT22;1059;52.548;13.408;2023-06-14T08:48:49;19.60;1.00
2106;DHT22;1059;52.548;13.408;2023-06-14T08:51:19;19.70;1.00
2106;DHT22;1059;52.548;13.408;2023-06-14T08:53:51;19.80;1.00
2106;DHT22;1059;52.548;13.408;2023-06-14T08:56:18;19.90;1.00
2106;DHT22;1059;52.548;13.408;2023-06-14T08:58:47;20.00;1.00
2106;DHT22;1059;52.548;13.408;2023-06-14T09:01:14;20.20;1.00
2106;DHT22;1059;52.548;13.408;2023-06-14T09:03:43;20.30;1.00
2106;DHT22;1059;52.548;13.408;2023-06-14T09:06:11;20.40;1.00
2106;DHT22;1059;52.548;13.408;2023-06-14T09:08:42;20.50;1.00
2106;DHT22;1059;52.548;13.408;2023-06-14T09:11:10;20.60;1.00
2106;DHT22;1059;52.548;13.408;2023-06-14T09:13:37;20.70;1.00
2106;DHT22;1059;52.548;13.408;2023-06-14T09:16:05;20.80;1.00
2106;DHT22;1059;52.548;13.408;2023-06-14T09:18:35;20.90;1.00
2106;DHT22;1059;52.548;13.408;2023-06-14T09:21:02;21.10;1.00
2106;DHT22;1059;52.548;13.408;2023-06-14T09:23:33;21.20;1.00
2106;DHT22;1059;52.548;13.408;2023-06-14T09:26:06;21.30;1.00
2106;DHT22;1059;52.548;13.408;2023-06-14T09:28:33;21.30;1.00
2106;DHT22;1059;52.548;13.408;2023-06-14T09:31:00;21.40;1.00
2106;DHT22;1059;52.548;13.408;2023-06-14T09:33:27;21.40;1.00
2106;DHT22;1059;52.548;13.408;2023-06-14T09:35:54;21.40;1.00
2106;DHT22;1059;52.548;13.408;2023-06-14T09:38:21;21.40;1.00
2106;DHT22;1059;52.548;13.408;2023-06-14T09:40:49;21.40;1.00
2106;DHT22;1059;52.548;13.408;2023-06-14T09:43:17;21.40;1.00
2106;DHT22;1059;52.548;13.408;2023-06-14T09:45:44;21.50;1.00
2106;DHT22;1059;52.548;13.408;2023-06-14T09:48:14;21.50;1.00
2106;DHT22;1059;52.548;13.408;2023-06-14T09:50:45;21.60;1.00
2106;DHT22;1059;52.548;13.408;2023-06-14T09:53:13;21.70;1.00
2106;DHT22;1059;52.548;13.408;2023-06-14T09:55:41;21.80;1.00
2106;DHT22;1059;52.548;13.408;2023-06-14T09:58:10;21.80;1.00
2106;DHT22;1059;52.548;13.408;2023-06-14T10:00:39;21.90;1.00
2106;DHT22;1059;52.548;13.408;2023-06-14T10:03:13;21.90;1.00
2106;DHT22;1059;52.548;13.408;2023-06-14T10:05:43;21.90;1.00
2106;DHT22;1059;52.548;13.408;2023-06-14T10:08:13;21.90;1.00
2106;DHT22;1059;52.548;13.408;2023-06-14T10:10:42;21.80;1.00
2106;DHT22;1059;52.548;13.408;2023-06-14T10:13:11;21.70;1.00
2106;DHT22;1059;52.548;13.408;2023-06-14T10:15:46;21.70;1.00
2106;DHT22;1059;52.548;13.408;2023-06-14T10:18:19;21.60;1.00
2106;DHT22;1059;52.548;13.408;2023-06-14T10:20:55;21.60;1.00
2106;DHT22;1059;52.548;13.408;2023-06-14T10:23:26;21.60;1.00
2106;DHT22;1059;52.548;13.408;2023-06-14T10:25:56;21.60;1.00
2106;DHT22;1059;52.548;13.408;2023-06-14T10:28:26;21.60;1.00
2106;DHT22;1059;52.548;13.408;2023-06-14T10:31:06;21.60;1.00
2106;DHT22;1059;52.548;13.408;2023-06-14T10:33:34;21.70;1.00
2106;DHT22;1059;52.548;13.408;2023-06-14T10:36:24;21.70;1.00
2106;DHT22;1059;52.548;13.408;2023-06-14T10:39:00;21.80;1.00
2106;DHT22;1059;52.548;13.408;2023-06-14T10:41:28;21.90;1.00
2106;DHT22;1059;52.548;13.408;2023-06-14T10:47:33;22.20;1.00
2106;DHT22;1059;52.548;13.408;2023-06-14T10:50:04;22.30;1.00
2106;DHT22;1059;52.548;13.408;2023-06-14T10:52:34;22.40;1.00
2106;DHT22;1059;52.548;13.408;2023-06-14T10:55:10;22.40;1.00
2106;DHT22;1059;52.548;13.408;2023-06-14T10:57:39;22.50;1.00
2106;DHT22;1059;52.548;13.408;2023-06-14T11:00:08;22.60;1.00
2106;DHT22;1059;52.548;13.408;2023-06-14T11:02:56;22.80;1.00
2106;DHT22;1059;52.548;13.408;2023-06-14T11:05:41;22.90;1.00
2106;DHT22;1059;52.548;13.408;2023-06-14T11:11:07;23.10;1.00
2106;DHT22;1059;52.548;13.408;2023-06-14T11:13:37;23.20;1.00
2106;DHT22;1059;52.548;13.408;2023-06-14T11:16:10;23.20;1.00
2106;DHT22;1059;52.548;13.408;2023-06-14T11:18:40;23.30;1.00
2106;DHT22;1059;52.548;13.408;2023-06-14T11:21:07;23.40;1.00
2106;DHT22;1059;52.548;13.408;2023-06-14T11:23:35;23.60;1.00
2106;DHT22;1059;52.548;13.408;2023-06-14T11:26:02;23.80;1.00
2106;DHT22;1059;52.548;13.408;2023-06-14T11:28:37;24.10;1.00
2106;DHT22;1059;52.548;13.408;2023-06-14T11:31:04;24.40;1.00
2106;DHT22;1059;52.548;13.408;2023-06-14T11:33:31;24.80;1.00
2106;DHT22;1059;52.548;13.408;2023-06-14T11:36:02;25.20;1.00
2106;DHT22;1059;52.548;13.408;2023-06-14T11:38:30;25.60;1.00
2106;DHT22;1059;52.548;13.408;2023-06-14T11:40:59;26.10;1.00
2106;DHT22;1059;52.548;13.408;2023-06-14T11:43:26;26.40;1.00
2106;DHT22;1059;52.548;13.408;2023-06-14T11:45:53;26.70;1.00
2106;DHT22;1059;52.548;13.408;2023-06-14T11:48:20;27.10;1.00
2106;DHT22;1059;52.548;13.408;2023-06-14T11:50:49;27.20;1.00
2106;DHT22;1059;52.548;13.408;2023-06-14T11:53:18;27.20;1.00
2106;DHT22;1059;52.548;13.408;2023-06-14T11:55:45;27.30;1.00
2106;DHT22;1059;52.548;13.408;2023-06-14T11:58:13;27.80;1.00
2106;DHT22;1059;52.548;13.408;2023-06-14T12:00:40;28.40;1.00
2106;DHT22;1059;52.548;13.408;2023-06-14T12:03:07;29.00;1.00
2106;DHT22;1059;52.548;13.408;2023-06-14T12:05:34;29.30;1.00
2106;DHT22;1059;52.548;13.408;2023-06-14T12:08:03;29.30;1.00
2106;DHT22;1059;52.548;13.408;2023-06-14T12:10:41;29.30;1.00
2106;DHT22;1059;52.548;13.408;2023-06-14T12:13:09;29.40;1.00
2106;DHT22;1059;52.548;13.408;2023-06-14T12:15:36;29.50;1.00
2106;DHT22;1059;52.548;13.408;2023-06-14T12:18:05;29.50;1.00
2106;DHT22;1059;52.548;13.408;2023-06-14T12:20:33;29.20;1.00
2106;DHT22;1059;52.548;13.408;2023-06-14T12:23:03;29.10;1.00
2106;DHT22;1059;52.548;13.408;2023-06-14T12:25:32;29.20;1.00
2106;DHT22;1059;52.548;13.408;2023-06-14T12:28:04;29.40;1.00
2106;DHT22;1059;52.548;13.408;2023-06-14T12:30:31;29.90;1.00
2106;DHT22;1059;52.548;13.408;2023-06-14T12:32:58;30.50;1.00
2106;DHT22;1059;52.548;13.408;2023-06-14T12:35:25;31.30;1.00
2106;DHT22;1059;52.548;13.408;2023-06-14T12:37:52;31.80;1.00
2106;DHT22;1059;52.548;13.408;2023-06-14T12:40:19;32.10;1.00
2106;DHT22;1059;52.548;13.408;2023-06-14T12:42:46;32.30;1.00
2106;DHT22;1059;52.548;13.408;2023-06-14T12:45:15;32.50;1.00
2106;DHT22;1059;52.548;13.408;2023-06-14T12:47:42;32.80;1.00
2106;DHT22;1059;52.548;13.408;2023-06-14T12:50:09;33.00;1.00
2106;DHT22;1059;52.548;13.408;2023-06-14T12:52:36;32.90;1.00
2106;DHT22;1059;52.548;13.408;2023-06-14T12:55:03;32.10;1.00
2106;DHT22;1059;52.548;13.408;2023-06-14T12:57:30;31.40;1.00
2106;DHT22;1059;52.548;13.408;2023-06-14T12:59:59;30.70;1.00
2106;DHT22;1059;52.548;13.408;2023-06-14T13:02:27;30.00;1.00
2106;DHT22;1059;52.548;13.408;2023-06-14T13:04:54;29.40;1.00
2106;DHT22;1059;52.548;13.408;2023-06-14T13:07:22;28.90;1.00
2106;DHT22;1059;52.548;13.408;2023-06-14T13:09:49;28.50;1.00
2106;DHT22;1059;52.548;13.408;2023-06-14T13:12:16;28.20;1.00
2106;DHT22;1059;52.548;13.408;2023-06-14T13:14:43;27.90;1.00
2106;DHT22;1059;52.548;13.408;2023-06-14T13:17:10;27.70;1.00
2106;DHT22;1059;52.548;13.408;2023-06-14T13:19:38;28.10;1.00
2106;DHT22;1059;52.548;13.408;2023-06-14T13:22:06;28.50;1.00
2106;DHT22;1059;52.548;13.408;2023-06-14T13:24:34;29.20;1.00
2106;DHT22;1059;52.548;13.408;2023-06-14T13:27:01;29.70;1.00
2106;DHT22;1059;52.548;13.408;2023-06-14T13:29:28;30.00;1.00
2106;DHT22;1059;52.548;13.408;2023-06-14T13:31:56;30.10;1.00
2106;DHT22;1059;52.548;13.408;2023-06-14T13:34:23;30.10;1.00
2106;DHT22;1059;52.548;13.408;2023-06-14T13:36:51;29.90;1.00
2106;DHT22;1059;52.548;13.408;2023-06-14T13:39:18;29.60;1.00
2106;DHT22;1059;52.548;13.408;2023-06-14T13:41:44;29.40;1.00
2106;DHT22;1059;52.548;13.408;2023-06-14T13:44:11;29.50;1.00
2106;DHT22;1059;52.548;13.408;2023-06-14T13:46:40;30.10;1.00
2106;DHT22;1059;52.548;13.408;2023-06-14T13:49:08;30.80;1.00
2106;DHT22;1059;52.548;13.408;2023-06-14T13:51:36;31.10;1.00
2106;DHT22;1059;52.548;13.408;2023-06-14T13:54:04;31.30;1.00
2106;DHT22;1059;52.548;13.408;2023-06-14T13:56:31;31.80;1.00
2106;DHT22;1059;52.548;13.408;2023-06-14T13:58:58;31.90;1.00
2106;DHT22;1059;52.548;13.408;2023-06-14T14:01:25;31.90;1.00
2106;DHT22;1059;52.548;13.408;2023-06-14T14:03:54;31.90;1.00
2106;DHT22;1059;52.548;13.408;2023-06-14T14:06:21;31.90;1.00
2106;DHT22;1059;52.548;13.408;2023-06-14T14:08:48;32.10;1.00
2106;DHT22;1059;52.548;13.408;2023-06-14T14:11:16;31.90;1.00
2106;DHT22;1059;52.548;13.408;2023-06-14T14:13:43;31.30;1.00
2106;DHT22;1059;52.548;13.408;2023-06-14T14:16:10;30.80;1.00
2106;DHT22;1059;52.548;13.408;2023-06-14T14:18:37;30.20;1.00
2106;DHT22;1059;52.548;13.408;2023-06-14T14:21:04;29.60;1.00
2106;DHT22;1059;52.548;13.408;2023-06-14T14:23:31;29.10;1.00
2106;DHT22;1059;52.548;13.408;2023-06-14T14:25:58;28.70;1.00
2106;DHT22;1059;52.548;13.408;2023-06-14T14:28:27;28.20;1.00
2106;DHT22;1059;52.548;13.408;2023-06-14T14:30:54;27.80;1.00
2106;DHT22;1059;52.548;13.408;2023-06-14T14:33:21;27.40;1.00
2106;DHT22;1059;52.548;13.408;2023-06-14T14:35:48;27.20;1.00
2106;DHT22;1059;52.548;13.408;2023-06-14T14:38:15;26.90;1.00
2106;DHT22;1059;52.548;13.408;2023-06-14T14:40:42;26.60;1.00
2106;DHT22;1059;52.548;13.408;2023-06-14T14:43:10;26.20;1.00
2106;DHT22;1059;52.548;13.408;2023-06-14T14:45:38;26.00;1.00
2106;DHT22;1059;52.548;13.408;2023-06-14T14:48:05;25.70;1.00
2106;DHT22;1059;52.548;13.408;2023-06-14T14:50:32;25.50;1.00
2106;DHT22;1059;52.548;13.408;2023-06-14T14:52:59;25.40;1.00
2106;DHT22;1059;52.548;13.408;2023-06-14T14:55:26;25.10;1.00
2106;DHT22;1059;52.548;13.408;2023-06-14T14:57:53;25.00;1.00
2106;DHT22;1059;52.548;13.408;2023-06-14T15:00:20;24.90;1.00
2106;DHT22;1059;52.548;13.408;2023-06-14T15:02:48;24.80;1.00
2106;DHT22;1059;52.548;13.408;2023-06-14T15:05:15;24.70;1.00
2106;DHT22;1059;52.548;13.408;2023-06-14T15:07:42;24.70;1.00
2106;DHT22;1059;52.548;13.408;2023-06-14T15:10:10;24.60;1.00
2106;DHT22;1059;52.548;13.408;2023-06-14T15:12:37;24.50;1.00
2106;DHT22;1059;52.548;13.408;2023-06-14T15:15:05;24.30;1.00
2106;DHT22;1059;52.548;13.408;2023-06-14T15:17:31;24.20;1.00
2106;DHT22;1059;52.548;13.408;2023-06-14T15:20:00;24.10;1.00
2106;DHT22;1059;52.548;13.408;2023-06-14T15:22:26;24.00;1.00
2106;DHT22;1059;52.548;13.408;2023-06-14T15:24:53;23.90;1.00
2106;DHT22;1059;52.548;13.408;2023-06-14T15:27:20;23.80;1.00
2106;DHT22;1059;52.548;13.408;2023-06-14T15:29:47;23.80;1.00
2106;DHT22;1059;52.548;13.408;2023-06-14T15:32:14;23.70;1.00
2106;DHT22;1059;52.548;13.408;2023-06-14T15:34:41;23.70;1.00
2106;DHT22;1059;52.548;13.408;2023-06-14T15:37:09;23.70;1.00
2106;DHT22;1059;52.548;13.408;2023-06-14T15:39:36;23.70;1.00
2106;DHT22;1059;52.548;13.408;2023-06-14T15:42:03;23.80;1.00
2106;DHT22;1059;52.548;13.408;2023-06-14T15:44:31;24.00;1.00
2106;DHT22;1059;52.548;13.408;2023-06-14T15:46:58;24.20;1.00
2106;DHT22;1059;52.548;13.408;2023-06-14T15:49:24;24.50;1.00
2106;DHT22;1059;52.548;13.408;2023-06-14T15:51:51;24.60;1.00
2106;DHT22;1059;52.548;13.408;2023-06-14T15:54:20;24.60;1.00
2106;DHT22;1059;52.548;13.408;2023-06-14T15:56:46;24.60;1.00
2106;DHT22;1059;52.548;13.408;2023-06-14T15:59:13;24.50;1.00
2106;DHT22;1059;52.548;13.408;2023-06-14T16:01:40;24.50;1.00
2106;DHT22;1059;52.548;13.408;2023-06-14T16:04:07;24.40;1.00
2106;DHT22;1059;52.548;13.408;2023-06-14T16:06:34;24.40;1.00
2106;DHT22;1059;52.548;13.408;2023-06-14T16:09:02;24.30;1.00
2106;DHT22;1059;52.548;13.408;2023-06-14T16:11:30;24.20;1.00